Time;durP1;ratioP1;P1;durP2;ratioP2;P2;SDS_P1;SDS_P2;PMS_P1;PMS_P2;Temp;Humidity;BMP_temperature;BMP_pressure;BME280_temperature;BME280_humidity;BME280_pressure;Samples;Min_cycle;Max_cycle;Signal;HPM_P1;HPM_P2
2022/04/18 00:01:58;;;;;;;28.33;14.90;;;;;;;;;;4979655;28;20047;-79
2022/04/18 00:04:44;;;;;;;24.75;12.65;;;;;;;;;;4978958;28;20035;-78
2022/04/18 00:07:30;;;;;;;23.10;12.20;;;;;;;;;;4977898;28;20050;-77
2022/04/18 00:10:15;;;;;;;30.52;15.20;;;;;;;;;;4978680;28;20042;-78
2022/04/18 00:13:01;;;;;;;27.30;12.88;;;;;;;;;;4978216;28;20055;-76
2022/04/18 00:15:46;;;;;;;14.95;9.05;;;;;;;;;;4985222;28;20039;-78
2022/04/18 00:18:31;;;;;;;22.13;10.52;;;;;;;;;;4978636;28;20051;-78
2022/04/18 00:21:17;;;;;;;12.43;6.13;;;;;;;;;;4977838;28;20047;-77
2022/04/18 00:24:02;;;;;;;9.15;6.72;;;;;;;;;;4977197;28;20047;-77
2022/04/18 00:26:48;;;;;;;9.15;6.20;;;;;;;;;;4978531;28;20043;-77
2022/04/18 00:29:34;;;;;;;10.18;6.72;;;;;;;;;;4983063;28;20424;-79
2022/04/18 00:32:19;;;;;;;9.70;7.05;;;;;;;;;;4983592;28;20047;-77
2022/04/18 00:35:08;;;;;;;10.57;8.35;;;;;;;;;;4984090;28;20046;-77
2022/04/18 00:37:52;;;;;;;12.00;8.35;;;;;;;;;;4977446;28;20046;-77
2022/04/18 00:40:38;;;;;;;13.10;8.60;;;;;;;;;;4978352;28;20400;-78
2022/04/18 00:43:44;;;;;;;12.88;8.90;;;;;;;;;;4976996;28;20054;-78
2022/04/18 00:46:29;;;;;;;11.63;7.32;;;;;;;;;;4977877;28;20134;-77
2022/04/18 00:49:15;;;;;;;11.07;7.63;;;;;;;;;;4977627;28;20047;-78
2022/04/18 00:52:04;;;;;;;10.73;7.75;;;;;;;;;;4978291;28;20050;-77
2022/04/18 00:54:51;;;;;;;12.75;8.57;;;;;;;;;;4977839;28;20051;-79
2022/04/18 00:57:37;;;;;;;14.65;8.75;;;;;;;;;;4983493;28;20046;-80
2022/04/18 01:00:22;;;;;;;12.48;8.77;;;;;;;;;;4977801;28;20042;-80
2022/04/18 01:03:07;;;;;;;15.52;9.40;;;;;;;;;;4975843;28;20074;-79
2022/04/18 01:05:53;;;;;;;17.13;10.88;;;;;;;;;;4983045;28;20046;-80
2022/04/18 01:08:38;;;;;;;18.15;11.32;;;;;;;;;;4969375;28;20039;-79
2022/04/18 01:11:23;;;;;;;18.30;11.23;;;;;;;;;;4976765;28;20055;-79
2022/04/18 01:14:27;;;;;;;20.10;10.70;;;;;;;;;;4977186;28;20492;-79
2022/04/18 01:17:41;;;;;;;18.30;10.73;;;;;;;;;;4983073;28;20055;-78
2022/04/18 01:20:42;;;;;;;18.90;10.70;;;;;;;;;;4977357;28;20063;-78
2022/04/18 01:23:54;;;;;;;15.65;9.15;;;;;;;;;;4982613;28;20046;-78
2022/04/18 01:30:07;;;;;;;12.10;7.88;;;;;;;;;;4969249;28;20042;-78
2022/04/18 01:32:53;;;;;;;11.05;7.50;;;;;;;;;;4968417;28;20046;-78
2022/04/18 01:35:39;;;;;;;11.75;8.20;;;;;;;;;;4996525;28;20038;-78
2022/04/18 01:38:26;;;;;;;16.13;9.27;;;;;;;;;;4976662;28;20042;-78
2022/04/18 01:41:12;;;;;;;13.95;8.48;;;;;;;;;;5004413;28;20046;-78
2022/04/18 01:43:58;;;;;;;14.20;8.60;;;;;;;;;;4991727;28;20043;-79
2022/04/18 01:46:44;;;;;;;14.70;9.05;;;;;;;;;;4995746;28;20050;-78
2022/04/18 01:49:31;;;;;;;11.45;8.38;;;;;;;;;;4968551;28;20050;-78
2022/04/18 01:52:16;;;;;;;14.30;9.00;;;;;;;;;;4968426;28;20043;-78
2022/04/18 01:55:03;;;;;;;14.88;8.45;;;;;;;;;;4981890;28;20050;-78
2022/04/18 01:57:49;;;;;;;12.98;8.57;;;;;;;;;;4995951;28;20043;-78
2022/04/18 02:00:34;;;;;;;13.88;8.75;;;;;;;;;;4981560;28;20039;-78
2022/04/18 02:03:21;;;;;;;12.73;8.25;;;;;;;;;;4982274;28;20047;-78
2022/04/18 02:06:07;;;;;;;12.77;8.30;;;;;;;;;;4968573;28;20039;-78
2022/04/18 02:08:52;;;;;;;11.43;7.90;;;;;;;;;;4994679;28;20043;-79
2022/04/18 02:11:41;;;;;;;12.60;8.35;;;;;;;;;;4982174;28;20050;-79
2022/04/18 02:14:26;;;;;;;11.23;7.68;;;;;;;;;;4981078;28;20043;-79
2022/04/18 02:17:12;;;;;;;11.27;7.90;;;;;;;;;;4968016;28;20043;-79
2022/04/18 02:19:57;;;;;;;11.65;8.18;;;;;;;;;;4976255;28;20039;-77
2022/04/18 02:22:42;;;;;;;13.07;7.57;;;;;;;;;;4994466;28;20051;-79
2022/04/18 02:25:27;;;;;;;14.30;9.13;;;;;;;;;;4976471;28;20051;-79
2022/04/18 02:28:18;;;;;;;14.38;8.77;;;;;;;;;;4980833;28;20046;-78
2022/04/18 02:31:11;;;;;;;12.70;8.25;;;;;;;;;;4967817;28;20046;-78
2022/04/18 02:33:56;;;;;;;13.00;8.40;;;;;;;;;;4995335;28;20043;-79
2022/04/18 02:36:41;;;;;;;12.35;8.20;;;;;;;;;;4994528;28;20051;-79
2022/04/18 02:39:27;;;;;;;12.65;7.90;;;;;;;;;;4994919;28;20420;-78
2022/04/18 02:42:13;;;;;;;12.40;8.30;;;;;;;;;;4994127;28;20039;-80
2022/04/18 02:45:01;;;;;;;13.02;8.88;;;;;;;;;;4988843;28;20500;-79
2022/04/18 02:48:08;;;;;;;12.93;8.60;;;;;;;;;;4981657;28;20047;-79
2022/04/18 02:50:56;;;;;;;21.88;11.85;;;;;;;;;;4980621;28;20047;-78
2022/04/18 02:53:45;;;;;;;19.10;12.52;;;;;;;;;;4981600;28;20050;-79
2022/04/18 02:56:32;;;;;;;13.50;9.02;;;;;;;;;;4967447;28;20043;-79
2022/04/18 02:59:16;;;;;;;13.57;9.32;;;;;;;;;;4966910;28;20047;-79
2022/04/18 03:02:04;;;;;;;11.75;8.35;;;;;;;;;;4994852;28;20038;-80
2022/04/18 03:04:49;;;;;;;12.63;8.55;;;;;;;;;;4994389;28;20051;-79
2022/04/18 03:07:36;;;;;;;13.20;9.48;;;;;;;;;;4981285;28;20046;-79
2022/04/18 03:11:02;;;;;;;16.90;9.40;;;;;;;;;;4994372;28;20480;-79
2022/04/18 03:13:32;;;;;;;15.30;9.27;;;;;;;;;;4987691;28;20054;-79
2022/04/18 03:16:19;;;;;;;13.70;8.80;;;;;;;;;;4994636;28;20493;-81
2022/04/18 03:19:04;;;;;;;15.05;9.65;;;;;;;;;;4966567;28;20039;-79
2022/04/18 03:21:53;;;;;;;13.88;9.05;;;;;;;;;;4967153;28;20039;-79
2022/04/18 03:24:39;;;;;;;14.48;9.68;;;;;;;;;;4966890;28;20046;-79
2022/04/18 03:27:30;;;;;;;17.25;10.40;;;;;;;;;;4966789;28;20047;-80
2022/04/18 03:30:16;;;;;;;15.68;9.93;;;;;;;;;;4980482;28;20051;-79
2022/04/18 03:33:07;;;;;;;15.02;9.80;;;;;;;;;;4994250;28;20055;-78
2022/04/18 03:42:03;;;;;;;15.25;9.70;;;;;;;;;;4967007;28;20484;-80
2022/04/18 03:44:50;;;;;;;15.00;9.85;;;;;;;;;;4988897;28;20043;-80
2022/04/18 03:47:35;;;;;;;13.32;8.65;;;;;;;;;;4993448;28;20051;-80
2022/04/18 03:50:22;;;;;;;14.65;9.23;;;;;;;;;;4975185;28;20047;-79
2022/04/18 03:53:07;;;;;;;12.07;8.60;;;;;;;;;;4967152;28;20039;-79
2022/04/18 03:55:55;;;;;;;12.65;8.57;;;;;;;;;;4981677;28;20054;-79
2022/04/18 03:59:01;;;;;;;14.95;9.88;;;;;;;;;;4984878;28;20054;-79
2022/04/18 04:01:48;;;;;;;15.20;10.50;;;;;;;;;;4966945;28;20400;-78
2022/04/18 04:04:34;;;;;;;18.25;12.38;;;;;;;;;;4966912;28;20047;-79
2022/04/18 04:07:21;;;;;;;17.48;13.10;;;;;;;;;;4967648;28;20054;-78
2022/04/18 04:10:19;;;;;;;19.67;12.60;;;;;;;;;;4965690;28;20055;-79
2022/04/18 04:13:06;;;;;;;19.15;12.35;;;;;;;;;;4979899;28;20397;-78
2022/04/18 04:16:10;;;;;;;18.92;12.70;;;;;;;;;;4973837;28;20047;-79
2022/04/18 04:18:56;;;;;;;19.35;12.32;;;;;;;;;;4979981;28;20038;-77
2022/04/18 04:21:42;;;;;;;22.10;13.40;;;;;;;;;;4966782;28;20047;-80
2022/04/18 04:24:28;;;;;;;26.40;17.52;;;;;;;;;;4966332;28;20046;-79
2022/04/18 04:27:16;;;;;;;30.33;18.30;;;;;;;;;;4979910;28;20047;-79
2022/04/18 04:30:02;;;;;;;29.50;18.05;;;;;;;;;;4979247;28;20051;-79
2022/04/18 04:32:59;;;;;;;24.90;17.00;;;;;;;;;;4979924;28;20047;-79
2022/04/18 04:35:45;;;;;;;26.40;17.27;;;;;;;;;;4966552;28;20043;-79
2022/04/18 04:38:33;;;;;;;27.92;18.13;;;;;;;;;;4967860;28;20412;-79
2022/04/18 04:41:27;;;;;;;32.88;20.60;;;;;;;;;;4983751;28;20042;-79
2022/04/18 04:44:17;;;;;;;29.20;19.75;;;;;;;;;;4965346;28;20043;-79
2022/04/18 04:47:14;;;;;;;53.22;26.15;;;;;;;;;;4982880;28;20047;-79
2022/04/18 04:50:10;;;;;;;31.17;19.60;;;;;;;;;;4969273;28;20496;-81
2022/04/18 04:53:04;;;;;;;25.75;16.65;;;;;;;;;;4982787;28;20050;-79
2022/04/18 04:55:49;;;;;;;24.23;16.38;;;;;;;;;;4983351;28;20078;-80
2022/04/18 04:58:35;;;;;;;24.80;16.52;;;;;;;;;;4969187;28;20054;-80
2022/04/18 05:01:25;;;;;;;27.83;16.00;;;;;;;;;;4969353;28;20051;-80
2022/04/18 05:04:27;;;;;;;44.42;24.50;;;;;;;;;;4969241;28;20492;-81
2022/04/18 05:07:15;;;;;;;30.35;20.02;;;;;;;;;;4982943;28;20042;-81
2022/04/18 05:10:20;;;;;;;30.60;18.10;;;;;;;;;;4982081;28;20055;-81
2022/04/18 05:13:06;;;;;;;25.52;16.40;;;;;;;;;;4968516;28;20046;-80
2022/04/18 05:15:51;;;;;;;22.77;15.43;;;;;;;;;;4968370;28;20046;-80
2022/04/18 05:18:49;;;;;;;28.58;16.00;;;;;;;;;;4982434;28;20051;-80
2022/04/18 05:21:34;;;;;;;22.50;15.40;;;;;;;;;;4967569;28;20047;-80
2022/04/18 05:24:27;;;;;;;22.48;14.40;;;;;;;;;;4969657;28;20047;-79
2022/04/18 05:27:15;;;;;;;34.83;22.92;;;;;;;;;;4981987;28;20042;-79
2022/04/18 05:30:02;;;;;;;25.58;15.85;;;;;;;;;;4968713;28;20485;-79
2022/04/18 05:32:47;;;;;;;24.48;15.75;;;;;;;;;;4969671;28;20413;-79
2022/04/18 05:35:33;;;;;;;18.15;12.63;;;;;;;;;;4976783;28;20055;-79
2022/04/18 05:38:20;;;;;;;34.60;19.95;;;;;;;;;;4982516;28;20054;-79
2022/04/18 05:41:10;;;;;;;20.67;12.80;;;;;;;;;;4976235;28;20213;-79
2022/04/18 05:43:57;;;;;;;16.48;9.95;;;;;;;;;;4979322;28;20481;-78
2022/04/18 05:46:46;;;;;;;19.75;12.48;;;;;;;;;;4982819;28;20043;-78
2022/04/18 05:49:31;;;;;;;17.55;10.77;;;;;;;;;;4975516;28;20051;-79
2022/04/18 05:52:21;;;;;;;13.48;9.43;;;;;;;;;;4971193;28;20059;-79
2022/04/18 05:55:13;;;;;;;17.65;10.60;;;;;;;;;;4985188;28;20043;-79
2022/04/18 05:57:58;;;;;;;17.30;11.73;;;;;;;;;;4972375;28;20054;-78
2022/04/18 06:00:44;;;;;;;20.08;13.55;;;;;;;;;;4971939;28;20050;-79
2022/04/18 06:03:30;;;;;;;25.75;11.50;;;;;;;;;;4971320;28;20042;-79
2022/04/18 06:06:16;;;;;;;17.25;9.60;;;;;;;;;;4972282;28;20039;-79
2022/04/18 06:09:01;;;;;;;17.58;6.97;;;;;;;;;;4972165;28;20055;-80
2022/04/18 06:11:47;;;;;;;11.13;7.10;;;;;;;;;;4991415;28;20039;-79
2022/04/18 06:14:36;;;;;;;11.00;7.47;;;;;;;;;;4982917;28;20050;-80
2022/04/18 06:17:23;;;;;;;11.48;6.95;;;;;;;;;;4980986;28;20488;-80
2022/04/18 06:20:16;;;;;;;14.95;9.52;;;;;;;;;;4968371;28;20441;-79
2022/04/18 06:23:02;;;;;;;14.70;10.70;;;;;;;;;;4967551;28;20046;-80
2022/04/18 06:25:48;;;;;;;22.65;10.20;;;;;;;;;;4975691;28;20047;-80
2022/04/18 06:28:35;;;;;;;14.98;9.80;;;;;;;;;;4968055;28;20047;-80
2022/04/18 06:31:20;;;;;;;14.98;8.13;;;;;;;;;;4981022;28;20046;-79
2022/04/18 06:34:12;;;;;;;15.13;9.00;;;;;;;;;;4981700;28;20484;-80
2022/04/18 06:36:59;;;;;;;17.40;8.60;;;;;;;;;;4967843;28;20047;-82
2022/04/18 06:39:55;;;;;;;13.73;8.52;;;;;;;;;;4967783;28;20059;-80
2022/04/18 06:42:50;;;;;;;13.88;8.05;;;;;;;;;;4981292;28;20051;-81
2022/04/18 06:45:42;;;;;;;14.23;7.47;;;;;;;;;;4980526;28;20493;-81
2022/04/18 06:48:28;;;;;;;12.55;7.50;;;;;;;;;;4981388;28;20043;-81
2022/04/18 06:51:42;;;;;;;11.57;7.03;;;;;;;;;;4967827;28;20042;-81
2022/04/18 06:54:46;;;;;;;11.07;7.47;;;;;;;;;;4975091;28;20050;-78
2022/04/18 06:57:33;;;;;;;13.38;8.15;;;;;;;;;;4981213;28;20408;-80
2022/04/18 07:00:20;;;;;;;11.80;7.70;;;;;;;;;;4979366;28;20481;-79
2022/04/18 07:03:06;;;;;;;9.13;6.88;;;;;;;;;;4981016;28;20043;-80
2022/04/18 07:05:51;;;;;;;12.48;7.72;;;;;;;;;;4980519;28;20055;-79
2022/04/18 07:08:38;;;;;;;10.65;7.00;;;;;;;;;;4974932;28;20051;-79
2022/04/18 07:11:55;;;;;;;13.88;6.78;;;;;;;;;;4968230;28;20047;-80
2022/04/18 07:14:43;;;;;;;8.88;5.25;;;;;;;;;;4979868;28;20047;-80
2022/04/18 07:17:31;;;;;;;6.35;4.60;;;;;;;;;;4980832;28;20051;-81
2022/04/18 07:20:19;;;;;;;6.40;4.25;;;;;;;;;;4966383;28;20050;-80
2022/04/18 07:23:05;;;;;;;8.40;5.20;;;;;;;;;;4974731;28;20047;-80
2022/04/18 07:26:03;;;;;;;8.13;4.18;;;;;;;;;;4980677;28;20066;-80
2022/04/18 07:28:53;;;;;;;7.93;4.55;;;;;;;;;;4979375;28;20043;-81
2022/04/18 07:31:38;;;;;;;11.82;5.28;;;;;;;;;;4980156;28;20034;-81
2022/04/18 07:34:24;;;;;;;5.75;4.38;;;;;;;;;;4979924;28;20039;-80
2022/04/18 07:37:11;;;;;;;8.55;4.43;;;;;;;;;;4979591;28;20050;-82
2022/04/18 07:39:56;;;;;;;6.22;4.35;;;;;;;;;;4967117;28;20397;-81
2022/04/18 07:42:41;;;;;;;6.63;4.10;;;;;;;;;;4979639;28;20043;-81
2022/04/18 07:45:26;;;;;;;6.00;4.38;;;;;;;;;;4980710;28;20043;-81
2022/04/18 07:48:12;;;;;;;9.55;5.15;;;;;;;;;;4979514;28;20043;-82
2022/04/18 07:54:09;;;;;;;11.05;5.97;;;;;;;;;;4965606;28;20046;-81
2022/04/18 07:56:55;;;;;;;9.98;5.00;;;;;;;;;;4979307;28;20046;-81
2022/04/18 07:59:49;;;;;;;5.97;4.28;;;;;;;;;;4966176;28;20043;-81
2022/04/18 08:02:35;;;;;;;7.60;5.68;;;;;;;;;;4979611;28;20047;-81
2022/04/18 08:05:28;;;;;;;8.73;6.25;;;;;;;;;;4974906;28;20047;-81
2022/04/18 08:08:22;;;;;;;11.65;7.32;;;;;;;;;;4980503;28;20059;-80
2022/04/18 08:11:15;;;;;;;9.88;5.78;;;;;;;;;;4979422;28;20050;-80
2022/04/18 08:14:03;;;;;;;10.40;6.65;;;;;;;;;;4970460;28;20054;-80
2022/04/18 08:17:08;;;;;;;9.15;5.70;;;;;;;;;;4977639;28;20393;-81
2022/04/18 08:19:57;;;;;;;10.93;6.97;;;;;;;;;;4983662;28;20066;-80
2022/04/18 08:22:43;;;;;;;11.18;6.68;;;;;;;;;;4995537;28;20043;-79
2022/04/18 08:25:50;;;;;;;15.35;7.30;;;;;;;;;;4957764;28;20481;-78
2022/04/18 08:28:49;;;;;;;8.93;5.78;;;;;;;;;;4983810;28;20047;-77
2022/04/18 08:31:34;;;;;;;8.05;5.68;;;;;;;;;;4982783;28;20043;-78
2022/04/18 08:34:25;;;;;;;9.75;6.15;;;;;;;;;;4983883;28;20361;-78
2022/04/18 08:37:10;;;;;;;13.00;6.93;;;;;;;;;;4977983;28;20464;-79
2022/04/18 08:40:20;;;;;;;11.23;5.30;;;;;;;;;;4983591;28;20067;-76
2022/04/18 08:43:08;;;;;;;7.13;4.43;;;;;;;;;;4982936;28;20047;-76
2022/04/18 08:45:56;;;;;;;6.38;4.75;;;;;;;;;;4982850;28;20050;-77
2022/04/18 08:54:57;;;;;;;5.82;4.00;;;;;;;;;;4989082;28;20038;-77
2022/04/18 08:57:42;;;;;;;7.18;4.35;;;;;;;;;;4988762;28;20062;-76
2022/04/18 09:00:31;;;;;;;7.70;3.80;;;;;;;;;;4988222;28;20054;-75
2022/04/18 09:03:34;;;;;;;5.65;3.85;;;;;;;;;;4988792;28;20042;-75
2022/04/18 09:06:24;;;;;;;9.48;5.72;;;;;;;;;;4986554;28;20042;-73
2022/04/18 09:09:27;;;;;;;10.43;4.57;;;;;;;;;;4988629;28;20400;-75
2022/04/18 09:12:23;;;;;;;10.60;6.55;;;;;;;;;;4997289;28;20046;-74
2022/04/18 09:16:04;;;;;;;9.10;5.35;;;;;;;;;;4992274;28;20043;-75
2022/04/18 09:19:19;;;;;;;6.57;4.78;;;;;;;;;;4997404;28;20042;-75
2022/04/18 09:22:27;;;;;;;11.73;4.35;;;;;;;;;;5002813;28;20054;-74
2022/04/18 09:25:28;;;;;;;5.35;4.25;;;;;;;;;;5002847;28;20069;-74
2022/04/18 09:28:42;;;;;;;6.10;3.95;;;;;;;;;;4980041;28;20050;-75
2022/04/18 09:31:41;;;;;;;8.23;4.20;;;;;;;;;;4988023;28;20046;-74
2022/04/18 09:34:48;;;;;;;10.32;5.22;;;;;;;;;;4988035;28;20046;-76
2022/04/18 09:37:34;;;;;;;11.55;5.50;;;;;;;;;;4987918;28;20046;-74
2022/04/18 09:40:24;;;;;;;10.55;6.22;;;;;;;;;;4974862;28;20043;-76
2022/04/18 09:43:09;;;;;;;6.47;5.00;;;;;;;;;;4972160;28;20050;-75
2022/04/18 09:45:57;;;;;;;10.38;5.45;;;;;;;;;;4994987;28;20047;-74
2022/04/18 09:48:50;;;;;;;14.30;5.50;;;;;;;;;;4988004;28;20042;-74
2022/04/18 09:51:37;;;;;;;6.32;4.72;;;;;;;;;;5000863;28;20480;-75
2022/04/18 09:54:32;;;;;;;8.00;4.93;;;;;;;;;;4987213;28;20058;-76
2022/04/18 09:57:23;;;;;;;10.10;5.55;;;;;;;;;;4995453;28;20046;-76
2022/04/18 10:00:09;;;;;;;6.70;5.05;;;;;;;;;;4996228;28;20046;-76
2022/04/18 10:03:15;;;;;;;8.43;4.90;;;;;;;;;;4954753;29;20055;-76
2022/04/18 10:06:01;;;;;;;11.50;6.15;;;;;;;;;;4954712;29;20055;-76
2022/04/18 10:08:46;;;;;;;12.20;6.45;;;;;;;;;;4956838;28;20051;-76
2022/04/18 10:11:32;;;;;;;7.45;4.93;;;;;;;;;;4960907;28;20060;-75
2022/04/18 10:14:17;;;;;;;7.45;4.55;;;;;;;;;;4959172;28;20047;-74
2022/04/18 10:17:06;;;;;;;12.18;5.53;;;;;;;;;;4941346;29;20473;-77
2022/04/18 10:20:03;;;;;;;13.40;4.25;;;;;;;;;;4953458;29;20046;-77
2022/04/18 10:22:54;;;;;;;6.43;4.43;;;;;;;;;;4954520;29;20047;-76
2022/04/18 10:25:57;;;;;;;7.68;5.18;;;;;;;;;;4954257;29;20046;-77
2022/04/18 10:28:47;;;;;;;16.73;9.73;;;;;;;;;;4961252;28;20055;-77
2022/04/18 10:31:39;;;;;;;11.20;6.60;;;;;;;;;;4954720;29;20058;-75
2022/04/18 10:34:24;;;;;;;13.20;6.55;;;;;;;;;;4954012;28;20051;-76
2022/04/18 10:37:10;;;;;;;10.32;6.30;;;;;;;;;;4958857;29;20485;-76
2022/04/18 10:40:06;;;;;;;10.15;6.07;;;;;;;;;;4980644;28;20046;-75
2022/04/18 10:42:54;;;;;;;7.97;5.30;;;;;;;;;;4994617;28;20038;-76
2022/04/18 10:45:40;;;;;;;18.10;10.50;;;;;;;;;;4994823;28;20492;-75
2022/04/18 10:48:37;;;;;;;22.73;16.00;;;;;;;;;;5000848;28;20042;-76
2022/04/18 10:51:28;;;;;;;8.27;5.65;;;;;;;;;;4994411;28;20054;-76
2022/04/18 10:54:14;;;;;;;6.82;4.28;;;;;;;;;;4994395;28;20038;-76
2022/04/18 10:57:01;;;;;;;9.50;5.00;;;;;;;;;;5001547;28;20046;-76
2022/04/18 10:59:51;;;;;;;5.97;4.13;;;;;;;;;;5001209;28;20038;-76
2022/04/18 11:02:38;;;;;;;11.45;3.47;;;;;;;;;;5000765;28;20038;-76
2022/04/18 11:05:39;;;;;;;4.88;3.67;;;;;;;;;;4993657;28;20050;-77
2022/04/18 11:08:25;;;;;;;10.52;3.53;;;;;;;;;;4994524;28;20046;-75
2022/04/18 11:11:19;;;;;;;6.80;4.68;;;;;;;;;;4994612;28;20058;-77
2022/04/18 11:14:44;;;;;;;7.65;4.78;;;;;;;;;;5001346;28;20420;-76
2022/04/18 11:17:37;;;;;;;11.15;5.70;;;;;;;;;;4994619;28;20050;-77
2022/04/18 11:20:36;;;;;;;6.47;4.68;;;;;;;;;;5000951;28;20054;-76
2022/04/18 11:23:23;;;;;;;6.43;4.57;;;;;;;;;;4992924;28;20433;-77
2022/04/18 11:26:09;;;;;;;8.25;5.13;;;;;;;;;;4994291;28;20050;-75
2022/04/18 11:28:55;;;;;;;10.57;5.55;;;;;;;;;;5001080;28;20483;-77
2022/04/18 11:31:41;;;;;;;8.95;4.75;;;;;;;;;;4994148;28;20050;-76
2022/04/18 11:34:28;;;;;;;10.70;6.75;;;;;;;;;;4993910;28;20035;-75
2022/04/18 11:37:21;;;;;;;15.02;6.15;;;;;;;;;;5000547;28;20407;-78
2022/04/18 11:40:11;;;;;;;7.57;3.72;;;;;;;;;;5003052;28;20047;-78
2022/04/18 11:43:00;;;;;;;4.95;3.50;;;;;;;;;;5002713;28;20488;-78
2022/04/18 11:45:47;;;;;;;8.55;3.42;;;;;;;;;;4998171;28;20408;-78
2022/04/18 11:48:32;;;;;;;5.85;3.00;;;;;;;;;;5003116;28;20054;-77
2022/04/18 11:51:36;;;;;;;5.95;3.25;;;;;;;;;;5003420;28;20046;-77
2022/04/18 11:54:22;;;;;;;3.42;2.58;;;;;;;;;;4994120;28;20489;-80
2022/04/18 11:57:07;;;;;;;9.93;3.70;;;;;;;;;;4994313;28;20046;-77
2022/04/18 11:59:52;;;;;;;6.50;4.18;;;;;;;;;;4979413;28;20050;-77
2022/04/18 12:09:14;;;;;;;10.23;5.80;;;;;;;;;;4993829;28;20046;-77
2022/04/18 12:12:02;;;;;;;12.88;7.13;;;;;;;;;;4978940;28;20042;-77
2022/04/18 12:14:47;;;;;;;19.73;8.40;;;;;;;;;;4992772;28;20042;-78
2022/04/18 12:17:35;;;;;;;13.88;5.90;;;;;;;;;;4993692;28;20484;-76
2022/04/18 12:20:25;;;;;;;15.93;8.43;;;;;;;;;;4993420;28;20488;-77
2022/04/18 12:23:24;;;;;;;8.90;6.10;;;;;;;;;;4993434;28;20046;-77
2022/04/18 12:26:13;;;;;;;13.57;5.97;;;;;;;;;;4993440;28;20387;-77
2022/04/18 12:29:04;;;;;;;10.15;4.88;;;;;;;;;;4993644;28;20042;-78
2022/04/18 12:31:58;;;;;;;12.23;6.28;;;;;;;;;;4994022;28;20476;-77
2022/04/18 12:34:43;;;;;;;10.60;5.38;;;;;;;;;;4993322;28;20054;-77
2022/04/18 12:37:30;;;;;;;8.93;5.25;;;;;;;;;;4978967;28;20054;-79
2022/04/18 12:40:17;;;;;;;4.85;3.95;;;;;;;;;;4993633;28;20420;-77
2022/04/18 12:43:14;;;;;;;8.57;5.05;;;;;;;;;;4993577;28;20051;-78
2022/04/18 12:46:07;;;;;;;77.47;35.53;;;;;;;;;;4993785;28;20046;-80
2022/04/18 12:48:52;;;;;;;52.67;26.27;;;;;;;;;;4993425;28;20039;-76
2022/04/18 12:51:42;;;;;;;13.73;6.20;;;;;;;;;;5010411;28;20042;-78
2022/04/18 12:54:27;;;;;;;9.93;6.80;;;;;;;;;;4996465;28;20385;-75
2022/04/18 12:57:20;;;;;;;9.98;6.15;;;;;;;;;;4994079;28;20484;-77
2022/04/18 13:00:14;;;;;;;10.52;4.80;;;;;;;;;;4996970;28;20039;-76
2022/04/18 13:03:02;;;;;;;7.88;6.38;;;;;;;;;;4996437;28;20046;-80
2022/04/18 13:05:49;;;;;;;12.65;8.57;;;;;;;;;;5003525;28;20046;-79
2022/04/18 13:08:40;;;;;;;13.43;7.13;;;;;;;;;;5003587;28;20046;-78
2022/04/18 13:11:43;;;;;;;7.57;4.30;;;;;;;;;;4996513;28;20054;-79
2022/04/18 13:14:29;;;;;;;6.47;4.22;;;;;;;;;;4997073;28;20042;-78
2022/04/18 13:17:15;;;;;;;13.02;5.88;;;;;;;;;;4996141;28;20050;-78
2022/04/18 13:20:04;;;;;;;10.82;5.88;;;;;;;;;;4997116;28;20051;-79
2022/04/18 13:22:49;;;;;;;5.47;3.53;;;;;;;;;;4996587;28;20046;-78
2022/04/18 13:25:35;;;;;;;4.65;3.60;;;;;;;;;;4996232;28;20503;-76
2022/04/18 13:28:20;;;;;;;9.15;4.20;;;;;;;;;;5003054;28;20038;-78
2022/04/18 13:31:05;;;;;;;9.02;5.32;;;;;;;;;;5002164;28;20046;-77
2022/04/18 13:33:50;;;;;;;7.30;3.90;;;;;;;;;;4996628;28;20042;-77
2022/04/18 13:36:39;;;;;;;5.60;3.70;;;;;;;;;;4996587;28;20411;-79
2022/04/18 13:39:24;;;;;;;4.78;3.33;;;;;;;;;;4995779;28;20046;-79
2022/04/18 13:42:10;;;;;;;7.38;4.60;;;;;;;;;;4996213;28;20046;-79
2022/04/18 13:44:55;;;;;;;5.72;4.20;;;;;;;;;;4996789;28;20401;-77
2022/04/18 13:47:43;;;;;;;8.82;5.95;;;;;;;;;;4996105;28;20492;-79
2022/04/18 13:50:29;;;;;;;5.70;3.78;;;;;;;;;;4997061;28;20047;-77
2022/04/18 13:53:14;;;;;;;8.32;4.20;;;;;;;;;;4995517;28;20419;-76
2022/04/18 13:56:00;;;;;;;7.40;4.10;;;;;;;;;;4996196;28;20473;-76
2022/04/18 13:58:46;;;;;;;10.77;6.20;;;;;;;;;;4997811;28;20091;-80
2022/04/18 14:01:31;;;;;;;8.52;5.13;;;;;;;;;;4996722;28;20034;-80
2022/04/18 14:04:16;;;;;;;7.30;4.80;;;;;;;;;;4988426;28;20038;-77
2022/04/18 14:07:01;;;;;;;11.07;5.15;;;;;;;;;;5002200;28;20137;-77
2022/04/18 14:09:47;;;;;;;3.85;2.92;;;;;;;;;;4995244;28;20046;-77
2022/04/18 14:12:32;;;;;;;8.65;5.70;;;;;;;;;;4995682;28;20484;-76
2022/04/18 14:21:26;;;;;;;8.57;5.40;;;;;;;;;;4994770;28;20047;-76
2022/04/18 14:24:12;;;;;;;13.35;5.28;;;;;;;;;;4987745;28;20038;-76
2022/04/18 14:26:58;;;;;;;9.68;4.60;;;;;;;;;;4995049;28;20046;-77
2022/04/18 14:29:43;;;;;;;14.48;7.22;;;;;;;;;;4987432;28;20054;-77
2022/04/18 14:32:28;;;;;;;31.08;13.60;;;;;;;;;;4995313;28;20047;-77
2022/04/18 14:35:15;;;;;;;14.85;8.93;;;;;;;;;;4994633;28;20050;-77
2022/04/18 14:38:02;;;;;;;9.52;6.07;;;;;;;;;;4995340;28;20392;-77
2022/04/18 14:40:47;;;;;;;13.32;7.38;;;;;;;;;;4994916;28;20400;-76
2022/04/18 14:43:33;;;;;;;15.13;6.40;;;;;;;;;;4994592;28;20051;-74
2022/04/18 14:46:18;;;;;;;13.13;6.28;;;;;;;;;;4994934;28;20042;-76
2022/04/18 14:49:04;;;;;;;9.77;5.72;;;;;;;;;;5001010;28;20046;-77
2022/04/18 14:51:50;;;;;;;16.55;8.93;;;;;;;;;;4994122;28;20050;-76
2022/04/18 14:54:36;;;;;;;19.02;9.55;;;;;;;;;;4994965;28;20047;-74
2022/04/18 14:57:22;;;;;;;13.70;6.30;;;;;;;;;;4994166;28;20042;-76
2022/04/18 15:00:08;;;;;;;10.63;6.38;;;;;;;;;;5001165;28;20042;-77
2022/04/18 15:02:54;;;;;;;12.13;6.88;;;;;;;;;;5004648;28;20042;-77
2022/04/18 15:05:39;;;;;;;19.20;9.40;;;;;;;;;;5000480;28;20042;-77
2022/04/18 15:08:25;;;;;;;18.80;11.70;;;;;;;;;;4994750;28;20048;-75
2022/04/18 15:11:11;;;;;;;15.80;9.40;;;;;;;;;;4993739;28;20042;-75
2022/04/18 15:13:56;;;;;;;12.95;7.03;;;;;;;;;;4994384;28;20042;-75
2022/04/18 15:16:41;;;;;;;13.35;7.30;;;;;;;;;;5000530;28;20492;-77
2022/04/18 15:19:26;;;;;;;12.18;5.72;;;;;;;;;;5000709;28;20054;-76
2022/04/18 15:22:12;;;;;;;11.85;7.10;;;;;;;;;;5000328;28;20480;-76
2022/04/18 15:24:58;;;;;;;9.63;5.30;;;;;;;;;;4994048;28;20484;-76
2022/04/18 15:27:43;;;;;;;2.42;1.70;;;;;;;;;;4994524;28;20046;-76
2022/04/18 15:33:32;;;;;;;10.82;6.00;;;;;;;;;;4994275;28;20042;-75
2022/04/18 15:36:19;;;;;;;13.90;7.03;;;;;;;;;;4994247;28;20038;-76
2022/04/18 15:39:04;;;;;;;15.13;7.63;;;;;;;;;;4993703;28;20046;-75
2022/04/18 15:41:50;;;;;;;10.93;5.30;;;;;;;;;;5000648;28;20054;-75
2022/04/18 15:44:36;;;;;;;9.43;5.10;;;;;;;;;;4994142;28;20047;-75
2022/04/18 15:47:22;;;;;;;6.70;3.63;;;;;;;;;;5000172;28;20484;-76
2022/04/18 15:50:08;;;;;;;7.00;4.80;;;;;;;;;;4993986;28;20050;-76
2022/04/18 15:52:56;;;;;;;6.32;4.28;;;;;;;;;;5000300;28;20046;-74
2022/04/18 15:55:42;;;;;;;18.48;13.63;;;;;;;;;;5000385;28;20038;-75
2022/04/18 15:58:28;;;;;;;9.77;5.75;;;;;;;;;;4995007;28;20050;-76
2022/04/18 16:01:13;;;;;;;13.10;6.25;;;;;;;;;;4993917;28;20046;-76
2022/04/18 16:03:59;;;;;;;14.55;6.88;;;;;;;;;;4993981;28;20042;-76
2022/04/18 16:06:45;;;;;;;23.35;9.73;;;;;;;;;;4993557;28;20042;-78
2022/04/18 16:09:30;;;;;;;17.92;10.57;;;;;;;;;;5000513;28;20054;-77
2022/04/18 16:12:16;;;;;;;19.48;11.68;;;;;;;;;;4993749;28;20047;-78
2022/04/18 16:15:02;;;;;;;24.23;14.43;;;;;;;;;;4993466;28;20042;-78
2022/04/18 16:17:48;;;;;;;33.20;15.65;;;;;;;;;;4993962;28;20043;-78
2022/04/18 16:20:34;;;;;;;12.07;6.93;;;;;;;;;;4999479;28;20531;-77
2022/04/18 16:23:19;;;;;;;23.48;10.98;;;;;;;;;;4992994;28;20389;-77
2022/04/18 16:26:05;;;;;;;17.95;10.95;;;;;;;;;;4994023;28;20477;-77
2022/04/18 16:28:50;;;;;;;13.52;7.88;;;;;;;;;;4993314;28;20042;-77
2022/04/18 16:31:51;;;;;;;13.40;6.57;;;;;;;;;;4993469;28;20050;-76
2022/04/18 16:34:36;;;;;;;17.17;8.15;;;;;;;;;;4991504;28;20042;-77
2022/04/18 16:37:22;;;;;;;30.40;15.02;;;;;;;;;;4988928;28;20476;-77
2022/04/18 16:40:08;;;;;;;21.85;11.85;;;;;;;;;;5004104;28;20046;-77
2022/04/18 16:45:57;;;;;;;30.27;16.10;;;;;;;;;;4997059;28;20054;-77
2022/04/18 16:48:43;;;;;;;17.05;9.20;;;;;;;;;;4997153;28;20054;-77
2022/04/18 16:51:36;;;;;;;22.00;9.98;;;;;;;;;;4996399;28;20042;-76
2022/04/18 16:54:21;;;;;;;30.02;15.90;;;;;;;;;;4996993;28;20042;-77
2022/04/18 16:57:07;;;;;;;29.23;14.27;;;;;;;;;;4996419;28;20038;-77
2022/04/18 16:59:52;;;;;;;10.45;6.50;;;;;;;;;;4988489;28;20042;-76
2022/04/18 17:02:38;;;;;;;25.05;13.65;;;;;;;;;;4996861;28;20042;-76
2022/04/18 17:05:23;;;;;;;13.43;8.32;;;;;;;;;;4996131;28;20050;-76
2022/04/18 17:08:09;;;;;;;14.13;7.55;;;;;;;;;;4997354;28;20104;-76
2022/04/18 17:10:56;;;;;;;12.35;6.45;;;;;;;;;;4996825;28;20051;-76
2022/04/18 17:13:42;;;;;;;28.88;12.13;;;;;;;;;;4996717;28;20500;-77
2022/04/18 17:16:29;;;;;;;32.35;15.38;;;;;;;;;;5005322;28;20393;-78
2022/04/18 17:19:15;;;;;;;27.75;15.52;;;;;;;;;;5011623;28;20054;-78